Aviation Forecast PDF Print E-mail

 
met_logo

NATIONAL METEOROLOGICAL SERVICE OF BELIZE

Area Forecast for the Country of Belize


For the period from:

1200 24 FEBRUARY 2017

to

2400 24 FEBRUARY 2017

All Heights in the forecast are above sea level. PS= Positive, MS= Minus. All times are UTC.


A.

SPECIAL FEATURES of the METEOROLOGICAL SITUATION

FAIR AND DRY WEATHER PREVAILS OVER THE AREA...

B.

HEIGHT (Ft)

WIND (True Degrees and Knots)

TEMPERATURE (°C)

Surface

29005 BECMG 14005

  

PS30-34

2,000

16005

PS23

5,000

09010

PS18

10,000

28020

PS10

C.

CLOUDS (Amount, Type, Ceiling and Top(optional))

 

 FEW/SCT CU BASES 2,000-3000 FT TOPS 6,000-8,000FT

 

 

 

 


D.

SURFACE VISIBILITY:  25KM . 500M IN HILL FOG . 


E.

WEATHER:   PARTLY CLOUDY, MOSTLY SUNNY SKIES. EARLY MORNING HILL FOG .


Remarks, Warnings, Turbulence

Barometric Changes

LOW CLOUDS COVERING HILLS;

DIURNAL (FALLING)

G.

OUTLOOK:

TO 1200 25 FEB 2017

MAINLY FAIR AND DRY. 

H. 

TAF MZBZ

231115Z 2412/2512 VRB03KT 9999 FEW022 BECMG 2415/2417 12007KT =

Meteorological Office:

BELIZE

Issued at:

1140 24 FEBRUARY 2017

Forecaster:

M. Gentle / S. Young